createdAt,value
2023-04-07T00:00:36.356Z,199.25
2023-04-07T00:01:36.434Z,204.25
2023-04-07T00:02:36.522Z,204.04
2023-04-07T00:03:36.614Z,201.70
2023-04-07T00:04:36.663Z,202.36
2023-04-07T00:05:36.530Z,201.08
2023-04-07T00:06:36.541Z,201.76
2023-04-07T00:07:42.201Z,199.07
2023-04-07T00:08:37.548Z,194.00
2023-04-07T00:09:36.521Z,191.14
2023-04-07T00:10:36.523Z,188.99
2023-04-07T00:11:36.528Z,190.43
2023-04-07T00:12:36.521Z,200.19
2023-04-07T00:13:36.511Z,209.45
2023-04-07T00:14:36.504Z,214.69
2023-04-07T00:15:36.531Z,211.35
2023-04-07T00:16:36.491Z,209.41
2023-04-07T00:17:36.514Z,210.49
2023-04-07T00:18:36.473Z,209.96
2023-04-07T00:19:36.516Z,220.26
2023-04-07T00:20:36.526Z,220.77
2023-04-07T00:21:36.576Z,219.77
2023-04-07T00:22:36.593Z,211.56
2023-04-07T00:23:36.612Z,204.51
2023-04-07T00:24:36.665Z,200.03
2023-04-07T00:25:36.695Z,196.94
2023-04-07T00:26:36.723Z,195.56
2023-04-07T00:27:36.773Z,189.05
2023-04-07T00:28:36.796Z,189.15
2023-04-07T00:29:36.853Z,190.40
2023-04-07T00:30:36.899Z,185.72
2023-04-07T00:31:36.950Z,183.63
2023-04-07T00:32:36.961Z,184.73
2023-04-07T00:33:36.992Z,184.93
2023-04-07T00:34:37.041Z,180.86
2023-04-07T00:35:37.135Z,183.44
2023-04-07T00:36:37.089Z,181.62
2023-04-07T00:37:37.100Z,183.30
2023-04-07T00:38:37.135Z,189.26
2023-04-07T00:39:37.193Z,193.59
2023-04-07T00:40:37.241Z,198.63
2023-04-07T00:41:37.245Z,201.48
2023-04-07T00:42:37.259Z,198.83
2023-04-07T00:43:37.297Z,199.49
2023-04-07T00:44:37.319Z,195.14
2023-04-07T00:45:37.341Z,196.14
2023-04-07T00:46:37.381Z,193.98
2023-04-07T00:47:37.412Z,190.25
2023-04-07T00:48:37.422Z,186.85
2023-04-07T00:49:37.451Z,190.07
2023-04-07T00:50:37.473Z,194.29
2023-04-07T00:51:37.493Z,192.26
2023-04-07T00:52:37.507Z,192.41
2023-04-07T00:53:37.536Z,192.21
2023-04-07T00:54:37.553Z,194.20
2023-04-07T00:55:37.605Z,195.33
2023-04-07T00:56:37.640Z,190.41
2023-04-07T00:57:37.686Z,190.55
2023-04-07T00:58:37.688Z,187.59
2023-04-07T00:59:37.775Z,189.49
2023-04-07T01:00:37.750Z,188.67
2023-04-07T01:01:37.908Z,190.01
2023-04-07T01:02:37.981Z,192.06
2023-04-07T01:03:38.206Z,191.46
2023-04-07T01:04:37.938Z,190.52
2023-04-07T01:05:37.907Z,188.96
2023-04-07T01:06:37.885Z,190.08
2023-04-07T01:07:37.917Z,189.94
2023-04-07T01:08:37.956Z,192.04
2023-04-07T01:09:37.986Z,193.30
2023-04-07T01:10:38.008Z,195.37
2023-04-07T01:11:38.017Z,193.80
2023-04-07T01:12:38.052Z,195.23
2023-04-07T01:13:38.084Z,198.32
2023-04-07T01:14:38.102Z,205.54
2023-04-07T01:15:38.135Z,203.64
2023-04-07T01:16:38.203Z,202.61
2023-04-07T01:17:38.226Z,205.70
2023-04-07T01:18:38.241Z,209.57
2023-04-07T01:19:38.267Z,203.99
2023-04-07T01:20:38.278Z,202.65
2023-04-07T01:21:38.309Z,202.02
2023-04-07T01:22:38.315Z,199.55
2023-04-07T01:23:38.351Z,198.94
2023-04-07T01:24:38.400Z,201.53
2023-04-07T01:25:38.442Z,201.67
2023-04-07T01:26:38.443Z,202.59
2023-04-07T01:27:38.489Z,197.88
2023-04-07T01:28:38.501Z,198.28
2023-04-07T01:29:38.540Z,192.55
2023-04-07T01:30:38.573Z,188.36
2023-04-07T01:31:38.681Z,184.82
2023-04-07T01:32:38.635Z,189.70
2023-04-07T01:33:38.647Z,196.68
2023-04-07T01:34:38.703Z,201.34
2023-04-07T01:35:38.665Z,200.29
2023-04-07T01:36:38.721Z,199.74
2023-04-07T01:37:38.733Z,200.41
2023-04-07T01:38:38.732Z,197.77
2023-04-07T01:39:38.757Z,199.54
2023-04-07T01:40:38.771Z,201.43
2023-04-07T01:41:38.782Z,192.76
2023-04-07T01:42:38.774Z,188.93
2023-04-07T01:43:38.794Z,184.44
2023-04-07T01:44:38.815Z,188.88
2023-04-07T01:45:38.850Z,197.26
2023-04-07T01:46:38.902Z,205.45
2023-04-07T01:47:38.962Z,201.64
2023-04-07T01:48:38.926Z,199.21
2023-04-07T01:49:38.918Z,193.81
2023-04-07T01:50:38.963Z,197.75
2023-04-07T01:51:38.958Z,197.54
2023-04-07T01:52:38.989Z,199.69
2023-04-07T01:53:38.998Z,194.77
2023-04-07T01:54:38.996Z,192.75
2023-04-07T01:55:39.019Z,189.66
2023-04-07T01:56:39.053Z,188.70
2023-04-07T01:57:39.061Z,192.59
2023-04-07T01:58:39.076Z,201.14
2023-04-07T01:59:39.133Z,207.80
2023-04-07T02:00:39.180Z,211.69
2023-04-07T02:01:39.255Z,213.94
2023-04-07T02:02:39.317Z,213.18
2023-04-07T02:03:39.353Z,208.47
2023-04-07T02:04:39.331Z,207.66
2023-04-07T02:05:39.303Z,205.06
2023-04-07T02:06:39.342Z,206.45
2023-04-07T02:07:39.349Z,206.19
2023-04-07T02:08:39.386Z,205.91
2023-04-07T02:09:39.414Z,203.30
2023-04-07T02:10:39.429Z,205.24
2023-04-07T02:11:39.445Z,204.64
2023-04-07T02:12:39.489Z,208.26
2023-04-07T02:13:39.500Z,213.99
2023-04-07T02:14:39.549Z,220.18
2023-04-07T02:15:39.592Z,221.40
2023-04-07T02:16:39.647Z,238.78
2023-04-07T02:17:39.738Z,254.44
2023-04-07T02:18:39.697Z,255.71
2023-04-07T02:19:39.744Z,242.53
2023-04-07T02:20:39.777Z,232.35
2023-04-07T02:21:39.798Z,227.52
2023-04-07T02:22:39.798Z,219.04
2023-04-07T02:23:39.816Z,213.29
2023-04-07T02:24:39.830Z,208.41
2023-04-07T02:25:39.917Z,207.11
2023-04-07T02:26:39.878Z,201.11
2023-04-07T02:27:39.890Z,195.59
2023-04-07T02:28:39.886Z,195.18
2023-04-07T02:29:39.897Z,193.07
2023-04-07T02:30:39.918Z,191.70
2023-04-07T02:31:40.006Z,193.99
2023-04-07T02:32:39.972Z,196.83
2023-04-07T02:33:39.939Z,194.99
2023-04-07T02:34:39.940Z,193.26
2023-04-07T02:35:39.979Z,193.16
2023-04-07T02:36:39.990Z,188.88
2023-04-07T02:37:39.958Z,185.44
2023-04-07T02:38:39.966Z,185.21
2023-04-07T02:39:39.982Z,186.19
2023-04-07T02:40:40.018Z,188.11
2023-04-07T02:41:39.999Z,188.78
2023-04-07T02:42:40.011Z,190.10
2023-04-07T02:43:40.048Z,189.18
2023-04-07T02:44:40.091Z,190.62
2023-04-07T02:45:40.110Z,192.32
2023-04-07T02:46:40.078Z,193.56
2023-04-07T02:47:40.162Z,197.10
2023-04-07T02:48:40.123Z,199.57
2023-04-07T02:49:40.141Z,200.04
2023-04-07T02:50:40.164Z,202.72
2023-04-07T02:51:40.150Z,201.76
2023-04-07T02:52:40.159Z,202.20
2023-04-07T02:53:40.183Z,201.39
2023-04-07T02:54:40.194Z,203.65
2023-04-07T02:55:40.235Z,205.11
2023-04-07T02:56:40.260Z,202.24
2023-04-07T02:57:40.257Z,199.37
2023-04-07T02:58:40.278Z,201.61
2023-04-07T02:59:40.320Z,198.18
2023-04-07T03:00:40.332Z,194.72
2023-04-07T03:01:40.507Z,197.30
2023-04-07T03:02:40.453Z,195.02
2023-04-07T03:03:40.532Z,193.56
2023-04-07T03:04:40.374Z,193.35
2023-04-07T03:05:40.432Z,192.72
2023-04-07T03:06:40.441Z,195.67
2023-04-07T03:07:40.443Z,195.07
2023-04-07T03:08:40.463Z,189.54
2023-04-07T03:09:40.450Z,186.81
2023-04-07T03:10:40.480Z,188.62
2023-04-07T03:11:40.517Z,192.04
2023-04-07T03:12:40.544Z,200.64
2023-04-07T03:13:40.604Z,206.65
2023-04-07T03:14:40.630Z,205.23
2023-04-07T03:15:40.652Z,199.00
2023-04-07T03:16:40.724Z,192.68
2023-04-07T03:17:40.744Z,187.37
2023-04-07T03:18:40.769Z,182.82
2023-04-07T03:19:40.826Z,181.60
2023-04-07T03:20:40.865Z,177.52
2023-04-07T03:21:40.873Z,176.05
2023-04-07T03:22:40.860Z,180.14
2023-04-07T03:23:40.875Z,181.92
2023-04-07T03:24:40.859Z,180.86
2023-04-07T03:25:40.906Z,180.90
2023-04-07T03:26:40.891Z,177.18
2023-04-07T03:27:40.918Z,176.66
2023-04-07T03:28:40.929Z,180.16
2023-04-07T03:29:40.957Z,180.20
2023-04-07T03:30:41.011Z,181.84
2023-04-07T03:31:41.004Z,181.40
2023-04-07T03:32:41.106Z,180.81
2023-04-07T03:33:41.046Z,181.93
2023-04-07T03:34:41.094Z,183.23
2023-04-07T03:35:41.099Z,181.37
2023-04-07T03:36:41.080Z,192.22
2023-04-07T03:37:41.099Z,201.26
2023-04-07T03:38:41.116Z,201.77
2023-04-07T03:39:41.181Z,200.45
2023-04-07T03:40:41.153Z,198.13
2023-04-07T03:41:41.108Z,193.87
2023-04-07T03:42:41.118Z,194.18
2023-04-07T03:43:41.109Z,192.64
2023-04-07T03:44:41.246Z,192.37
2023-04-07T03:45:41.113Z,195.60
2023-04-07T03:46:41.245Z,196.27
2023-04-07T03:47:41.154Z,195.63
2023-04-07T03:48:41.096Z,198.39
2023-04-07T03:49:41.106Z,202.20
2023-04-07T03:50:41.106Z,214.07
2023-04-07T03:51:41.084Z,224.69
2023-04-07T03:52:41.097Z,222.22
2023-04-07T03:53:41.106Z,219.91
2023-04-07T03:54:41.084Z,216.34
2023-04-07T03:55:41.092Z,214.11
2023-04-07T03:56:41.097Z,214.08
2023-04-07T03:57:41.113Z,212.10
2023-04-07T03:58:41.097Z,214.40
2023-04-07T03:59:41.080Z,213.17
2023-04-07T04:00:41.080Z,212.55
2023-04-07T04:01:41.162Z,213.47
2023-04-07T04:02:41.207Z,215.44
2023-04-07T04:03:41.164Z,218.04
2023-04-07T04:04:41.120Z,219.86
2023-04-07T04:05:41.064Z,221.17
2023-04-07T04:06:41.074Z,223.20
2023-04-07T04:07:41.069Z,226.83
2023-04-07T04:08:41.064Z,231.46
2023-04-07T04:09:41.072Z,233.79
2023-04-07T04:10:41.051Z,226.18
2023-04-07T04:11:41.046Z,225.56
2023-04-07T04:12:41.066Z,226.30
2023-04-07T04:13:41.053Z,223.55
2023-04-07T04:14:41.079Z,223.24
2023-04-07T04:15:41.129Z,222.12
2023-04-07T04:16:41.071Z,219.65
2023-04-07T04:17:41.128Z,220.70
2023-04-07T04:18:41.077Z,227.84
2023-04-07T04:19:41.087Z,231.74
2023-04-07T04:20:41.078Z,228.16
2023-04-07T04:21:41.072Z,224.99
2023-04-07T04:22:41.069Z,223.77
2023-04-07T04:23:41.066Z,222.32
2023-04-07T04:24:41.081Z,217.84
2023-04-07T04:25:41.085Z,214.29
2023-04-07T04:26:41.074Z,214.33
2023-04-07T04:27:41.102Z,209.99
2023-04-07T04:28:41.121Z,210.66
2023-04-07T04:29:41.110Z,210.20
2023-04-07T04:30:41.165Z,215.73
2023-04-07T04:31:41.194Z,218.25
2023-04-07T04:32:41.320Z,222.60
2023-04-07T04:33:41.260Z,220.09
2023-04-07T04:34:41.289Z,217.12
2023-04-07T04:35:41.347Z,218.09
2023-04-07T04:36:41.454Z,217.88
2023-04-07T04:37:41.383Z,215.14
2023-04-07T04:38:41.395Z,214.79
2023-04-07T04:39:41.392Z,215.48
2023-04-07T04:40:41.385Z,215.28
2023-04-07T04:41:41.377Z,215.51
2023-04-07T04:42:41.369Z,213.64
2023-04-07T04:43:42.358Z,215.69
2023-04-07T04:44:41.370Z,217.00
2023-04-07T04:45:41.384Z,218.18
2023-04-07T04:46:41.426Z,213.26
2023-04-07T04:47:41.460Z,211.89
2023-04-07T04:48:41.407Z,209.22
2023-04-07T04:49:41.393Z,209.88
2023-04-07T04:50:41.408Z,210.00
2023-04-07T04:51:41.383Z,214.92
2023-04-07T04:52:41.368Z,210.41
2023-04-07T04:53:41.383Z,209.42
2023-04-07T04:54:41.384Z,206.15
2023-04-07T04:55:41.373Z,208.20
2023-04-07T04:56:41.371Z,209.22
2023-04-07T04:57:41.367Z,210.59
2023-04-07T04:58:41.368Z,209.12
2023-04-07T04:59:41.369Z,208.43
2023-04-07T05:00:41.429Z,209.20
2023-04-07T05:01:41.472Z,209.17
2023-04-07T05:02:41.528Z,210.44
2023-04-07T05:03:41.572Z,213.49
2023-04-07T05:04:41.515Z,216.61
2023-04-07T05:05:41.478Z,217.72
2023-04-07T05:06:41.446Z,219.00
2023-04-07T05:07:41.442Z,221.28
2023-04-07T05:08:41.436Z,220.68
2023-04-07T05:09:41.422Z,220.04
2023-04-07T05:10:41.452Z,224.84
2023-04-07T05:11:41.428Z,223.32
2023-04-07T05:12:41.444Z,223.97
2023-04-07T05:13:41.437Z,228.49
2023-04-07T05:14:41.434Z,231.27
2023-04-07T05:15:41.464Z,234.04
2023-04-07T05:16:41.535Z,240.09
2023-04-07T05:17:41.543Z,243.98
2023-04-07T05:18:41.447Z,250.00
2023-04-07T05:19:41.448Z,248.65
2023-04-07T05:20:41.480Z,249.70
2023-04-07T05:21:41.520Z,250.00
2023-04-07T05:22:41.570Z,251.05
2023-04-07T05:23:41.637Z,249.55
2023-04-07T05:24:41.663Z,250.00
2023-04-07T05:25:41.717Z,249.53
2023-04-07T05:26:41.731Z,248.92
2023-04-07T05:27:41.783Z,248.81
2023-04-07T05:28:41.809Z,249.22
2023-04-07T05:29:41.848Z,249.70
2023-04-07T05:30:41.852Z,249.70
2023-04-07T05:31:41.887Z,249.10
2023-04-07T05:32:41.898Z,250.00
2023-04-07T05:33:41.856Z,249.01
2023-04-07T05:34:41.861Z,246.64
2023-04-07T05:35:41.861Z,240.85
2023-04-07T05:36:41.886Z,238.67
2023-04-07T05:37:41.870Z,237.10
2023-04-07T05:38:41.891Z,234.79
2023-04-07T05:39:41.867Z,237.18
2023-04-07T05:40:41.903Z,236.22
2023-04-07T05:41:41.896Z,236.92
2023-04-07T05:42:41.898Z,236.80
2023-04-07T05:43:41.893Z,236.55
2023-04-07T05:44:41.890Z,235.69
2023-04-07T05:45:41.925Z,237.91
2023-04-07T05:46:41.911Z,239.27
2023-04-07T05:47:41.937Z,240.60
2023-04-07T05:48:41.902Z,242.89
2023-04-07T05:49:41.946Z,242.49
2023-04-07T05:50:41.936Z,238.10
2023-04-07T05:51:41.947Z,237.17
2023-04-07T05:52:41.973Z,237.36
2023-04-07T05:53:41.986Z,235.02
2023-04-07T05:54:42.005Z,234.14
2023-04-07T05:55:42.036Z,232.93
2023-04-07T05:56:42.040Z,235.29
2023-04-07T05:57:42.036Z,236.27
2023-04-07T05:58:42.023Z,236.20
2023-04-07T05:59:42.031Z,236.54
2023-04-07T06:00:42.041Z,234.33
2023-04-07T06:01:42.156Z,235.94
2023-04-07T06:02:42.278Z,232.87
2023-04-07T06:03:42.206Z,237.63
2023-04-07T06:04:42.076Z,243.52
2023-04-07T06:05:42.094Z,248.89
2023-04-07T06:06:42.083Z,248.62
2023-04-07T06:07:42.083Z,247.78
2023-04-07T06:08:42.084Z,242.92
2023-04-07T06:09:42.083Z,241.98
2023-04-07T06:10:42.070Z,239.86
2023-04-07T06:11:42.064Z,240.59
2023-04-07T06:12:42.052Z,240.67
2023-04-07T06:13:42.063Z,239.62
2023-04-07T06:14:42.056Z,238.41
2023-04-07T06:15:42.058Z,236.60
2023-04-07T06:16:42.073Z,236.32
2023-04-07T06:17:42.102Z,237.34
2023-04-07T06:18:42.063Z,234.94
2023-04-07T06:19:42.070Z,237.70
2023-04-07T06:20:42.072Z,237.14
2023-04-07T06:21:42.099Z,235.41
2023-04-07T06:22:42.093Z,233.56
2023-04-07T06:23:42.122Z,235.02
2023-04-07T06:24:42.123Z,233.27
2023-04-07T06:25:42.146Z,233.41
2023-04-07T06:26:42.135Z,232.58
2023-04-07T06:27:42.169Z,233.73
2023-04-07T06:28:42.173Z,233.92
2023-04-07T06:29:42.216Z,234.25
2023-04-07T06:30:42.304Z,240.18
2023-04-07T06:31:42.294Z,242.92
2023-04-07T06:32:42.317Z,246.47
2023-04-07T06:33:42.304Z,249.75
2023-04-07T06:34:42.303Z,250.00
2023-04-07T06:35:42.340Z,249.90
2023-04-07T06:36:42.375Z,248.04
2023-04-07T06:37:42.413Z,242.59
2023-04-07T06:38:42.428Z,237.01
2023-04-07T06:39:42.456Z,229.72
2023-04-07T06:40:42.480Z,229.97
2023-04-07T06:41:42.505Z,232.33
2023-04-07T06:42:42.514Z,228.11
2023-04-07T06:43:42.555Z,229.52
2023-04-07T06:44:42.553Z,230.55
2023-04-07T06:45:42.628Z,229.22
2023-04-07T06:46:42.676Z,228.86
2023-04-07T06:47:42.698Z,225.65
2023-04-07T06:48:42.673Z,224.88
2023-04-07T06:49:42.698Z,225.15
2023-04-07T06:50:42.744Z,229.97
2023-04-07T06:51:42.748Z,233.38
2023-04-07T06:52:43.169Z,231.91
2023-04-07T06:53:42.820Z,233.24
2023-04-07T06:54:42.850Z,229.50
2023-04-07T06:55:42.900Z,231.52
2023-04-07T06:56:42.959Z,231.91
2023-04-07T06:57:42.996Z,223.07
2023-04-07T06:58:43.045Z,223.95
2023-04-07T06:59:43.078Z,232.64
2023-04-07T07:00:43.122Z,236.95
2023-04-07T07:01:43.231Z,240.90
2023-04-07T07:02:43.278Z,239.61
2023-04-07T07:03:43.359Z,233.28
2023-04-07T07:04:43.277Z,233.85
2023-04-07T07:05:43.316Z,228.55
2023-04-07T07:06:43.353Z,228.72
2023-04-07T07:07:43.417Z,227.62
2023-04-07T07:08:43.458Z,228.96
2023-04-07T07:09:43.492Z,234.67
2023-04-07T07:10:43.559Z,237.00
2023-04-07T07:11:43.617Z,233.47
2023-04-07T07:12:43.649Z,231.77
2023-04-07T07:13:43.713Z,227.72
2023-04-07T07:14:43.775Z,227.98
2023-04-07T07:15:43.850Z,232.37
2023-04-07T07:16:43.910Z,231.22
2023-04-07T07:17:44.048Z,234.70
2023-04-07T07:18:44.035Z,229.37
2023-04-07T07:19:44.079Z,228.04
2023-04-07T07:20:44.158Z,229.07
2023-04-07T07:21:44.204Z,231.38
2023-04-07T07:22:44.288Z,233.76
2023-04-07T07:23:44.333Z,235.53
2023-04-07T07:24:44.402Z,234.50
2023-04-07T07:25:44.445Z,235.09
2023-04-07T07:26:44.698Z,233.90
2023-04-07T07:27:44.604Z,234.15
2023-04-07T07:28:44.632Z,233.91
2023-04-07T07:29:44.681Z,234.62
2023-04-07T07:30:44.749Z,231.79
2023-04-07T07:31:44.776Z,228.36
2023-04-07T07:32:44.863Z,228.73
2023-04-07T07:33:44.874Z,230.77
2023-04-07T07:34:44.925Z,230.93
2023-04-07T07:35:44.981Z,230.28
2023-04-07T07:36:45.006Z,229.69
2023-04-07T07:37:45.033Z,232.39
2023-04-07T07:38:45.075Z,232.96
2023-04-07T07:39:45.125Z,235.02
2023-04-07T07:40:45.153Z,238.38
2023-04-07T07:41:45.164Z,243.16
2023-04-07T07:42:45.202Z,246.15
2023-04-07T07:43:45.432Z,245.34
2023-04-07T07:44:45.291Z,250.00
2023-04-07T07:45:45.313Z,252.91
2023-04-07T07:46:45.350Z,250.00
2023-04-07T07:47:45.371Z,249.95
2023-04-07T07:48:45.412Z,247.91
2023-04-07T07:49:45.439Z,246.64
2023-04-07T07:50:45.502Z,241.96
2023-04-07T07:51:45.567Z,241.73
2023-04-07T07:52:45.620Z,243.98
2023-04-07T07:53:45.948Z,246.08
2023-04-07T07:54:45.742Z,246.61
2023-04-07T07:55:45.830Z,249.36
2023-04-07T07:56:45.873Z,248.52
2023-04-07T07:57:45.933Z,248.64
2023-04-07T07:58:45.947Z,250.22
2023-04-07T07:59:45.970Z,249.82
2023-04-07T08:00:45.961Z,248.88
2023-04-07T08:01:45.989Z,249.48
2023-04-07T08:02:46.030Z,248.64
2023-04-07T08:03:46.228Z,248.43
2023-04-07T08:04:46.015Z,247.52
2023-04-07T08:05:45.995Z,246.89
2023-04-07T08:06:46.003Z,244.83
2023-04-07T08:07:46.002Z,242.32
2023-04-07T08:08:46.000Z,240.72
2023-04-07T08:09:45.995Z,240.00
2023-04-07T08:10:45.992Z,243.80
2023-04-07T08:11:46.004Z,241.13
2023-04-07T08:12:46.018Z,238.08
2023-04-07T08:13:46.519Z,237.74
2023-04-07T08:14:46.068Z,230.41
2023-04-07T08:15:46.105Z,220.32
2023-04-07T08:16:46.156Z,215.84
2023-04-07T08:17:46.229Z,209.96
2023-04-07T08:18:46.457Z,209.94
2023-04-07T08:19:46.322Z,206.59
2023-04-07T08:20:46.374Z,205.03
2023-04-07T08:21:46.425Z,201.58
2023-04-07T08:22:46.495Z,197.82
2023-04-07T08:23:46.746Z,197.15
2023-04-07T08:24:46.614Z,192.45
2023-04-07T08:25:46.669Z,191.32
2023-04-07T08:26:46.750Z,194.40
2023-04-07T08:27:46.793Z,191.86
2023-04-07T08:28:46.867Z,189.56
2023-04-07T08:29:46.929Z,189.33
2023-04-07T08:30:46.979Z,189.18
2023-04-07T08:31:47.066Z,188.48
2023-04-07T08:32:47.156Z,190.45
2023-04-07T08:33:47.351Z,188.12
2023-04-07T08:34:47.231Z,189.33
2023-04-07T08:35:47.288Z,190.18
2023-04-07T08:36:47.314Z,192.55
2023-04-07T08:37:47.368Z,190.59
2023-04-07T08:38:47.415Z,191.24
2023-04-07T08:39:47.467Z,191.15
2023-04-07T08:40:47.499Z,193.64
2023-04-07T08:41:47.549Z,190.25
2023-04-07T08:42:47.567Z,187.43
2023-04-07T08:43:47.822Z,188.39
2023-04-07T08:44:47.603Z,189.18
2023-04-07T08:45:47.621Z,189.85
2023-04-07T08:46:47.644Z,190.87
2023-04-07T08:47:47.671Z,191.92
2023-04-07T08:48:47.631Z,192.64
2023-04-07T08:49:47.641Z,193.29
2023-04-07T08:50:47.642Z,196.01
2023-04-07T08:51:47.653Z,196.00
2023-04-07T08:52:47.644Z,196.69
2023-04-07T08:53:47.698Z,197.90
2023-04-07T08:54:47.611Z,199.39
2023-04-07T08:55:47.617Z,200.87
2023-04-07T08:56:47.610Z,201.52
2023-04-07T08:57:47.622Z,203.12
2023-04-07T08:58:47.619Z,204.08
2023-04-07T08:59:47.644Z,201.54
2023-04-07T09:00:47.638Z,201.80
2023-04-07T09:01:47.653Z,202.18
2023-04-07T09:02:47.644Z,201.92
2023-04-07T09:03:47.944Z,201.69
2023-04-07T09:04:47.596Z,202.50
2023-04-07T09:05:47.615Z,200.24
2023-04-07T09:06:47.592Z,200.83
2023-04-07T09:07:47.615Z,199.67
2023-04-07T09:08:47.591Z,200.85
2023-04-07T09:09:47.602Z,201.30
2023-04-07T09:10:47.603Z,202.05
2023-04-07T09:11:47.611Z,200.15
2023-04-07T09:12:47.600Z,206.16
2023-04-07T09:13:47.772Z,207.02
2023-04-07T09:14:47.606Z,208.54
2023-04-07T09:15:47.604Z,204.01
2023-04-07T09:16:47.701Z,203.11
2023-04-07T09:17:47.696Z,202.59
2023-04-07T09:18:47.632Z,204.44
2023-04-07T09:19:47.633Z,199.92
2023-04-07T09:20:47.623Z,199.91
2023-04-07T09:21:47.629Z,198.29
2023-04-07T09:22:47.659Z,200.10
2023-04-07T09:23:47.972Z,198.80
2023-04-07T09:24:47.684Z,196.68
2023-04-07T09:25:47.691Z,193.78
2023-04-07T09:26:47.692Z,197.41
2023-04-07T09:27:47.698Z,196.08
2023-04-07T09:28:47.685Z,194.27
2023-04-07T09:29:47.761Z,196.70
2023-04-07T09:30:47.698Z,192.36
2023-04-07T09:31:47.761Z,189.27
2023-04-07T09:32:47.745Z,192.52
2023-04-07T09:33:47.913Z,186.89
2023-04-07T09:34:47.752Z,189.06
2023-04-07T09:35:47.767Z,193.44
2023-04-07T09:36:47.768Z,199.05
2023-04-07T09:37:47.776Z,199.59
2023-04-07T09:38:47.773Z,198.82
2023-04-07T09:39:47.788Z,201.70
2023-04-07T09:40:47.810Z,204.39
2023-04-07T09:41:47.851Z,206.10
2023-04-07T09:42:47.827Z,204.99
2023-04-07T09:43:48.055Z,210.18
2023-04-07T09:44:47.852Z,202.29
2023-04-07T09:45:47.928Z,201.53
2023-04-07T09:46:47.892Z,208.86
2023-04-07T09:47:47.895Z,215.90
2023-04-07T09:48:47.885Z,216.53
2023-04-07T09:49:47.891Z,215.60
2023-04-07T09:50:47.934Z,217.71
2023-04-07T09:51:47.923Z,213.81
2023-04-07T09:52:47.945Z,214.10
2023-04-07T09:53:48.325Z,209.49
2023-04-07T09:54:47.957Z,205.15
2023-04-07T09:55:48.055Z,207.99
2023-04-07T09:56:49.967Z,206.83
2023-04-07T09:57:47.966Z,208.69
2023-04-07T09:58:47.970Z,210.75
2023-04-07T09:59:47.957Z,212.68
2023-04-07T10:00:47.994Z,217.35
2023-04-07T10:01:48.054Z,216.30
2023-04-07T10:02:48.041Z,218.68
2023-04-07T10:03:48.220Z,221.93
2023-04-07T10:04:47.939Z,217.35
2023-04-07T10:05:47.943Z,211.58
2023-04-07T10:06:47.936Z,220.00
2023-04-07T10:07:47.922Z,218.71
2023-04-07T10:08:48.101Z,224.69
2023-04-07T10:09:47.885Z,222.89
2023-04-07T10:10:47.902Z,219.13
2023-04-07T10:11:47.877Z,219.96
2023-04-07T10:12:47.884Z,222.66
2023-04-07T10:13:48.066Z,223.35
2023-04-07T10:14:47.872Z,224.57
2023-04-07T10:15:47.875Z,226.79
2023-04-07T10:16:47.873Z,228.57
2023-04-07T10:17:47.874Z,222.49
2023-04-07T10:18:47.829Z,222.72
2023-04-07T10:19:47.842Z,220.17
2023-04-07T10:20:47.844Z,219.13
2023-04-07T10:21:47.814Z,221.33
2023-04-07T10:22:47.825Z,219.68
2023-04-07T10:23:47.888Z,219.01
2023-04-07T10:24:47.798Z,216.13
2023-04-07T10:25:47.839Z,218.89
2023-04-07T10:26:47.794Z,220.47
2023-04-07T10:27:47.788Z,215.74
2023-04-07T10:28:47.785Z,221.95
2023-04-07T10:29:47.788Z,224.89
2023-04-07T10:30:47.807Z,224.32
2023-04-07T10:31:47.753Z,228.00
2023-04-07T10:32:47.766Z,229.31
2023-04-07T10:33:48.179Z,219.28
2023-04-07T10:34:47.737Z,214.01
2023-04-07T10:35:47.782Z,218.05
2023-04-07T10:36:47.738Z,224.17
2023-04-07T10:37:47.729Z,232.03
2023-04-07T10:38:47.703Z,230.72
2023-04-07T10:39:47.717Z,228.86
2023-04-07T10:40:47.736Z,223.40
2023-04-07T10:41:47.704Z,209.69
2023-04-07T10:42:47.703Z,209.49
2023-04-07T10:43:47.962Z,204.18
2023-04-07T10:44:47.668Z,207.15
2023-04-07T10:45:47.692Z,218.05
2023-04-07T10:46:47.668Z,213.86
2023-04-07T10:47:47.683Z,212.84
2023-04-07T10:48:47.654Z,220.10
2023-04-07T10:49:47.654Z,215.80
2023-04-07T10:50:47.634Z,213.98
2023-04-07T10:51:47.648Z,216.73
2023-04-07T10:52:47.639Z,217.82
2023-04-07T10:53:47.627Z,218.03
2023-04-07T10:54:47.605Z,216.86
2023-04-07T10:55:47.608Z,219.83
2023-04-07T10:56:47.604Z,215.26
2023-04-07T10:57:47.599Z,210.24
2023-04-07T10:58:47.594Z,201.32
2023-04-07T10:59:47.588Z,201.32
2023-04-07T11:00:47.612Z,202.30
2023-04-07T11:01:47.650Z,200.84
2023-04-07T11:02:47.794Z,187.51
2023-04-07T11:03:47.802Z,186.10
2023-04-07T11:04:47.654Z,179.79
2023-04-07T11:05:47.557Z,170.42
2023-04-07T11:06:47.527Z,163.16
2023-04-07T11:07:47.527Z,158.93
2023-04-07T11:08:49.004Z,163.89
2023-04-07T11:09:47.509Z,177.29
2023-04-07T11:10:47.532Z,187.31
2023-04-07T11:11:47.504Z,182.48
2023-04-07T11:12:47.485Z,182.61
2023-04-07T11:13:47.713Z,184.21
2023-04-07T11:14:47.490Z,184.17
2023-04-07T11:15:47.586Z,181.37
2023-04-07T11:16:47.533Z,183.03
2023-04-07T11:17:47.621Z,191.37
2023-04-07T11:18:47.555Z,190.23
2023-04-07T11:19:47.536Z,179.36
2023-04-07T11:20:47.550Z,180.16
2023-04-07T11:21:47.547Z,182.12
2023-04-07T11:22:47.541Z,182.87
2023-04-07T11:23:48.166Z,173.99
2023-04-07T11:24:47.525Z,163.56
2023-04-07T11:25:47.564Z,164.70
2023-04-07T11:26:48.823Z,167.20
2023-04-07T11:27:47.535Z,162.63
2023-04-07T11:28:47.528Z,155.93
2023-04-07T11:29:47.504Z,157.28
2023-04-07T11:30:47.516Z,163.37
2023-04-07T11:31:47.580Z,165.37
2023-04-07T11:32:47.582Z,161.50
2023-04-07T11:33:47.660Z,162.22
2023-04-07T11:34:47.491Z,166.25
2023-04-07T11:35:47.521Z,167.27
2023-04-07T11:36:47.465Z,168.22
2023-04-07T11:37:47.482Z,168.89
2023-04-07T11:38:47.465Z,167.82
2023-04-07T11:39:47.452Z,168.66
2023-04-07T11:40:47.438Z,171.79
2023-04-07T11:41:47.447Z,173.20
2023-04-07T11:42:47.425Z,169.54
2023-04-07T11:43:47.620Z,179.00
2023-04-07T11:44:47.403Z,182.72
2023-04-07T11:45:47.416Z,185.78
2023-04-07T11:46:47.430Z,185.90
2023-04-07T11:47:47.418Z,185.49
2023-04-07T11:48:47.391Z,189.07
2023-04-07T11:49:47.381Z,188.36
2023-04-07T11:50:47.370Z,194.32
2023-04-07T11:51:47.357Z,195.65
2023-04-07T11:52:47.358Z,193.09
2023-04-07T11:53:47.652Z,198.53
2023-04-07T11:54:47.425Z,190.69
2023-04-07T11:55:47.342Z,196.50
2023-04-07T11:56:47.323Z,196.59
2023-04-07T11:57:47.326Z,193.00
2023-04-07T11:58:47.301Z,198.59
2023-04-07T11:59:47.301Z,200.63
2023-04-07T12:00:47.295Z,188.49
2023-04-07T12:01:47.376Z,197.26
2023-04-07T12:02:47.493Z,198.72
2023-04-07T12:03:47.530Z,203.22
2023-04-07T12:04:47.358Z,192.43
2023-04-07T12:05:47.274Z,197.23
2023-04-07T12:06:47.261Z,190.37
2023-04-07T12:07:47.261Z,185.03
2023-04-07T12:08:47.242Z,182.56
2023-04-07T12:09:47.244Z,189.47
2023-04-07T12:10:47.265Z,201.69
2023-04-07T12:11:47.235Z,199.12
2023-04-07T12:12:47.225Z,200.83
2023-04-07T12:13:47.433Z,186.96
2023-04-07T12:14:47.201Z,176.03
2023-04-07T12:15:47.217Z,165.62
2023-04-07T12:16:47.212Z,144.51
2023-04-07T12:17:47.230Z,153.21
2023-04-07T12:18:47.183Z,148.50
2023-04-07T12:19:47.165Z,143.89
2023-04-07T12:20:47.160Z,161.07
2023-04-07T12:21:47.179Z,157.46
2023-04-07T12:22:47.155Z,156.00
2023-04-07T12:23:47.365Z,154.04
2023-04-07T12:24:47.139Z,152.20
2023-04-07T12:25:47.124Z,144.11
2023-04-07T12:26:47.127Z,147.53
2023-04-07T12:27:47.119Z,144.36
2023-04-07T12:28:47.102Z,149.60